Time;durP1;ratioP1;P1;durP2;ratioP2;P2;SDS_P1;SDS_P2;PMS_P1;PMS_P2;Temp;Humidity;BMP_temperature;BMP_pressure;BME280_temperature;BME280_humidity;BME280_pressure;Samples;Min_cycle;Max_cycle;Signal;HPM_P1;HPM_P2
2022/11/24 00:01:05;;;;;;;;;;;6.60;99.90;;;;;;5032377;28;19948;-84
2022/11/24 00:03:31;;;;;;;;;;;6.50;99.90;;;;;;5034305;28;19929;-84
2022/11/24 00:06:01;;;;;;;;;;;6.50;99.90;;;;;;5016388;28;20334;-84
2022/11/24 00:08:27;;;;;;;;;;;6.40;99.90;;;;;;5032831;28;19925;-84
2022/11/24 00:10:52;;;;;;;;;;;6.30;99.90;;;;;;5032344;28;20101;-84
2022/11/24 00:13:18;;;;;;;;;;;6.30;99.90;;;;;;5032541;28;19925;-84
2022/11/24 00:15:44;;;;;;;;;;;6.20;99.90;;;;;;5032432;28;19932;-84
2022/11/24 00:18:09;;;;;;;;;;;6.20;99.90;;;;;;5032215;28;19931;-84
2022/11/24 00:20:35;;;;;;;;;;;6.20;99.90;;;;;;5032856;28;20380;-84
2022/11/24 00:23:00;;;;;;;;;;;6.10;99.90;;;;;;5016797;28;19925;-84
2022/11/24 00:25:26;;;;;;;;;;;6.10;99.90;;;;;;5032645;28;20373;-84
2022/11/24 00:27:51;;;;;;;;;;;6.00;99.90;;;;;;4999754;28;20353;-84
2022/11/24 00:30:17;;;;;;;;;;;6.50;99.90;;;;;;5032488;28;19925;-84
2022/11/24 00:32:42;;;;;;;;;;;6.00;99.90;;;;;;5033165;28;20012;-84
2022/11/24 00:35:08;;;;;;;;;;;6.00;99.90;;;;;;5018638;28;20315;-84
2022/11/24 00:37:34;;;;;;;;;;;6.00;99.90;;;;;;5036998;28;19933;-84
2022/11/24 00:39:59;;;;;;;;;;;5.90;99.90;;;;;;5036199;28;19933;-84
2022/11/24 00:42:25;;;;;;;;;;;5.90;99.90;;;;;;5019594;28;19929;-84
2022/11/24 00:44:51;;;;;;;;;;;6.30;99.90;;;;;;5019520;28;20019;-84
2022/11/24 00:47:16;;;;;;;;;;;5.90;99.90;;;;;;5036075;28;19925;-84
2022/11/24 00:49:42;;;;;;;;;;;5.80;99.90;;;;;;5019740;28;20322;-84
2022/11/24 00:52:07;;;;;;;;;;;5.80;99.90;;;;;;5019043;28;19932;-84
2022/11/24 00:54:33;;;;;;;;;;;5.80;99.90;;;;;;5019342;28;20021;-84
2022/11/24 00:56:58;;;;;;;;;;;5.70;99.90;;;;;;5036101;28;20320;-85
2022/11/24 00:59:24;;;;;;;;;;;5.70;99.90;;;;;;5019213;28;20012;-84
2022/11/24 01:01:49;;;;;;;;;;;5.70;99.90;;;;;;5036517;28;19927;-84
2022/11/24 01:04:15;;;;;;;;;;;5.80;99.90;;;;;;5036628;28;19925;-84
2022/11/24 01:06:41;;;;;;;;;;;5.80;99.90;;;;;;5018695;28;19971;-84
2022/11/24 01:09:06;;;;;;;;;;;5.70;99.90;;;;;;5035835;28;19932;-84
2022/11/24 01:14:17;;;;;;;;;;;5.70;99.90;;;;;;5035823;28;20016;-84
2022/11/24 01:16:43;;;;;;;;;;;5.70;99.90;;;;;;5019202;28;20002;-84
2022/11/24 01:19:09;;;;;;;;;;;5.70;99.90;;;;;;5018944;28;19932;-84
2022/11/24 01:21:34;;;;;;;;;;;5.70;99.90;;;;;;5035338;28;19932;-84
2022/11/24 01:24:00;;;;;;;;;;;5.70;99.90;;;;;;5018572;28;20293;-84
2022/11/24 01:26:25;;;;;;;;;;;5.60;99.90;;;;;;5018780;28;20020;-84
2022/11/24 01:28:52;;;;;;;;;;;5.70;99.90;;;;;;5002405;28;19960;-84
2022/11/24 01:31:17;;;;;;;;;;;5.70;99.90;;;;;;5035122;28;19995;-83
2022/11/24 01:33:43;;;;;;;;;;;5.60;99.90;;;;;;5035118;28;20369;-84
2022/11/24 01:36:08;;;;;;;;;;;6.60;99.90;;;;;;5036063;28;20064;-84
2022/11/24 01:38:34;;;;;;;;;;;5.60;99.90;;;;;;5018761;28;20432;-84
2022/11/24 01:41:00;;;;;;;;;;;5.60;99.90;;;;;;5019353;28;20023;-84
2022/11/24 01:43:26;;;;;;;;;;;5.60;99.90;;;;;;5034910;28;19929;-84
2022/11/24 01:45:53;;;;;;;;;;;5.60;99.90;;;;;;5035924;28;20354;-84
2022/11/24 01:48:22;;;;;;;;;;;5.60;99.90;;;;;;5034825;28;19925;-84
2022/11/24 01:50:52;;;;;;;;;;;5.60;99.90;;;;;;5018960;28;19954;-84
2022/11/24 01:53:19;;;;;;;;;;;5.60;99.90;;;;;;5018480;28;20010;-84
2022/11/24 01:55:45;;;;;;;;;;;5.70;99.90;;;;;;5034676;28;20070;-84
2022/11/24 01:58:12;;;;;;;;;;;5.70;99.90;;;;;;5018211;28;19983;-84
2022/11/24 02:00:39;;;;;;;;;;;5.80;99.90;;;;;;5018145;28;19925;-84
2022/11/24 02:03:05;;;;;;;;;;;5.80;99.90;;;;;;5034257;28;19932;-84
2022/11/24 02:05:38;;;;;;;;;;;5.90;99.90;;;;;;5034200;28;19925;-84
2022/11/24 02:08:07;;;;;;;;;;;5.90;99.90;;;;;;5034187;28;19933;-84
2022/11/24 02:10:32;;;;;;;;;;;6.00;99.90;;;;;;5034300;28;20289;-84
2022/11/24 02:12:59;;;;;;;;;;;6.00;99.90;;;;;;5035265;28;19925;-84
2022/11/24 02:15:25;;;;;;;;;;;6.10;99.90;;;;;;5034622;28;19925;-84
2022/11/24 02:17:50;;;;;;;;;;;6.60;99.90;;;;;;5035152;28;19932;-84
2022/11/24 02:20:16;;;;;;;;;;;6.20;99.90;;;;;;5034491;28;20289;-84
2022/11/24 02:22:48;;;;;;;;;;;6.20;99.90;;;;;;5033942;28;19925;-84
2022/11/24 02:25:19;;;;;;;;;;;6.20;99.90;;;;;;5035144;28;19936;-84
2022/11/24 02:27:45;;;;;;;;;;;6.20;99.90;;;;;;5033747;28;20019;-84
2022/11/24 02:30:11;;;;;;;;;;;6.20;99.90;;;;;;5033866;28;19968;-85
2022/11/24 02:32:39;;;;;;;;;;;6.20;99.90;;;;;;5017352;28;19970;-84
2022/11/24 02:35:06;;;;;;;;;;;5.80;99.90;;;;;;5034918;28;20005;-84
2022/11/24 02:37:32;;;;;;;;;;;6.10;99.90;;;;;;5035503;28;19925;-84
2022/11/24 02:39:57;;;;;;;;;;;6.00;99.90;;;;;;5018384;28;20324;-84
2022/11/24 02:42:23;;;;;;;;;;;6.00;99.90;;;;;;5034290;28;19929;-84
2022/11/24 02:44:52;;;;;;;;;;;5.90;99.90;;;;;;5017434;28;20300;-84
2022/11/24 02:47:17;;;;;;;;;;;5.90;99.90;;;;;;5033957;28;19925;-84
2022/11/24 02:49:43;;;;;;;;;;;6.20;99.90;;;;;;5033727;28;19936;-84
2022/11/24 02:52:08;;;;;;;;;;;5.90;99.90;;;;;;5016779;28;20019;-84
2022/11/24 02:54:34;;;;;;;;;;;5.90;99.90;;;;;;5033938;28;19932;-83
2022/11/24 02:57:00;;;;;;;;;;;5.90;99.90;;;;;;5034162;28;19925;-84
2022/11/24 02:59:25;;;;;;;;;;;6.60;99.90;;;;;;5017093;28;19932;-83
2022/11/24 03:01:51;;;;;;;;;;;5.80;99.90;;;;;;5033428;28;20324;-83
2022/11/24 03:04:16;;;;;;;;;;;5.90;99.90;;;;;;5034274;28;19925;-84
2022/11/24 03:06:42;;;;;;;;;;;5.80;99.90;;;;;;5032967;28;19925;-84
2022/11/24 03:09:09;;;;;;;;;;;5.80;99.90;;;;;;5033352;28;19929;-84
2022/11/24 03:11:34;;;;;;;;;;;6.50;99.90;;;;;;5033199;28;19925;-84
2022/11/24 03:14:00;;;;;;;;;;;5.80;99.90;;;;;;5034758;28;19932;-83
2022/11/24 03:16:26;;;;;;;;;;;5.90;99.90;;;;;;5000715;28;19925;-83
2022/11/24 03:18:51;;;;;;;;;;;5.90;99.90;;;;;;5033247;28;19925;-84
2022/11/24 03:21:17;;;;;;;;;;;5.90;99.90;;;;;;5033120;28;20026;-84
2022/11/24 03:23:43;;;;;;;;;;;5.90;99.90;;;;;;5034050;28;19963;-83
2022/11/24 03:26:09;;;;;;;;;;;6.00;99.90;;;;;;5000120;28;19925;-83
2022/11/24 03:28:35;;;;;;;;;;;5.90;99.90;;;;;;5034140;28;20285;-84
2022/11/24 03:31:01;;;;;;;;;;;5.90;99.90;;;;;;5032908;28;19926;-84
2022/11/24 03:33:27;;;;;;;;;;;6.00;99.90;;;;;;5033334;28;19996;-83
2022/11/24 03:35:52;;;;;;;;;;;6.00;99.90;;;;;;5032718;28;19929;-84
2022/11/24 03:38:18;;;;;;;;;;;6.00;99.90;;;;;;5033611;28;19926;-83
2022/11/24 03:40:43;;;;;;;;;;;6.00;99.90;;;;;;5017280;28;19936;-83
2022/11/24 03:43:09;;;;;;;;;;;6.10;99.90;;;;;;5017204;28;19925;-84
2022/11/24 03:45:35;;;;;;;;;;;6.30;99.90;;;;;;5016449;28;20019;-84
2022/11/24 03:48:00;;;;;;;;;;;6.10;99.90;;;;;;4999862;28;19925;-84
2022/11/24 03:50:26;;;;;;;;;;;6.10;99.90;;;;;;5000100;28;19932;-83
2022/11/24 03:52:51;;;;;;;;;;;6.10;99.90;;;;;;5032731;28;19925;-83
2022/11/24 03:55:17;;;;;;;;;;;6.20;99.90;;;;;;5032925;28;20369;-83
2022/11/24 03:57:42;;;;;;;;;;;6.90;99.90;;;;;;5032761;28;19976;-83
2022/11/24 04:00:08;;;;;;;;;;;6.00;99.90;;;;;;5032839;28;19925;-83
2022/11/24 04:02:34;;;;;;;;;;;6.00;99.90;;;;;;5032960;28;19925;-84
2022/11/24 04:05:00;;;;;;;;;;;5.90;99.90;;;;;;5000258;28;20365;-83
2022/11/24 04:07:25;;;;;;;;;;;5.90;99.90;;;;;;5032267;28;19933;-83
2022/11/24 04:09:51;;;;;;;;;;;5.80;99.90;;;;;;5035173;28;19952;-83
2022/11/24 04:15:00;;;;;;;;;;;5.70;99.90;;;;;;5020395;28;19925;-83
2022/11/24 04:17:26;;;;;;;;;;;5.70;99.90;;;;;;5037415;28;19992;-84
2022/11/24 04:19:52;;;;;;;;;;;5.70;99.90;;;;;;5019883;28;20034;-84
2022/11/24 04:22:17;;;;;;;;;;;5.60;99.90;;;;;;5003424;28;19933;-83
2022/11/24 04:24:43;;;;;;;;;;;5.60;99.90;;;;;;5019659;28;20079;-84
2022/11/24 04:27:09;;;;;;;;;;;5.70;99.90;;;;;;5019529;28;20024;-83
2022/11/24 04:29:34;;;;;;;;;;;5.60;99.90;;;;;;5020145;28;19932;-84
2022/11/24 04:32:00;;;;;;;;;;;6.20;99.90;;;;;;5003827;28;19992;-83
2022/11/24 04:34:25;;;;;;;;;;;5.50;99.90;;;;;;5020044;28;20357;-83
2022/11/24 04:36:51;;;;;;;;;;;5.50;99.90;;;;;;5019880;28;20023;-83
2022/11/24 04:39:18;;;;;;;;;;;5.50;99.90;;;;;;5037104;28;19925;-83
2022/11/24 04:41:45;;;;;;;;;;;5.50;99.90;;;;;;5019838;28;19929;-83
2022/11/24 04:44:11;;;;;;;;;;;6.50;99.90;;;;;;5019299;28;19994;-83
2022/11/24 04:46:36;;;;;;;;;;;5.50;99.90;;;;;;5019215;28;20028;-84
2022/11/24 04:49:02;;;;;;;;;;;5.50;99.90;;;;;;5019560;28;19925;-83
2022/11/24 04:51:27;;;;;;;;;;;5.50;99.90;;;;;;5003541;28;20067;-83
2022/11/24 04:53:53;;;;;;;;;;;5.50;99.90;;;;;;5019022;28;19929;-84
2022/11/24 04:56:18;;;;;;;;;;;5.50;99.90;;;;;;5019601;28;20011;-84
2022/11/24 04:58:46;;;;;;;;;;;5.50;99.90;;;;;;5003130;28;20484;-84
2022/11/24 05:01:12;;;;;;;;;;;5.50;99.90;;;;;;5002973;28;19925;-84
2022/11/24 05:03:37;;;;;;;;;;;5.50;99.90;;;;;;5002761;28;19932;-84
2022/11/24 05:06:03;;;;;;;;;;;5.50;99.90;;;;;;5042549;28;20019;-83
2022/11/24 05:08:29;;;;;;;;;;;5.40;99.90;;;;;;5039697;28;20003;-84
2022/11/24 05:10:54;;;;;;;;;;;5.40;99.90;;;;;;5022678;28;19925;-84
2022/11/24 05:13:20;;;;;;;;;;;5.40;99.90;;;;;;5006244;28;19931;-83
2022/11/24 05:15:45;;;;;;;;;;;5.30;99.90;;;;;;5038935;28;19925;-84
2022/11/24 05:18:13;;;;;;;;;;;5.60;99.90;;;;;;5038797;28;19932;-83
2022/11/24 05:20:39;;;;;;;;;;;5.90;99.90;;;;;;5038386;28;19924;-84
2022/11/24 05:23:05;;;;;;;;;;;5.30;99.90;;;;;;5038863;28;20269;-84
2022/11/24 05:25:31;;;;;;;;;;;6.00;99.90;;;;;;5038500;28;19925;-83
2022/11/24 05:28:01;;;;;;;;;;;5.30;99.90;;;;;;5038285;28;19924;-83
2022/11/24 05:30:27;;;;;;;;;;;5.30;99.90;;;;;;5022575;28;19925;-84
2022/11/24 05:32:52;;;;;;;;;;;5.70;99.90;;;;;;5021793;28;19948;-84
2022/11/24 05:35:18;;;;;;;;;;;6.10;99.90;;;;;;5021587;28;19925;-83
2022/11/24 05:37:44;;;;;;;;;;;5.30;99.90;;;;;;5056012;28;19931;-83
2022/11/24 05:40:09;;;;;;;;;;;5.20;99.90;;;;;;5024269;28;19981;-83
2022/11/24 05:42:41;;;;;;;;;;;5.20;99.90;;;;;;5068308;28;19928;-83
2022/11/24 05:45:11;;;;;;;;;;;5.20;99.90;;;;;;5035848;28;20011;-83
2022/11/24 05:47:37;;;;;;;;;;;5.10;99.90;;;;;;5050897;28;19947;-83
2022/11/24 05:50:03;;;;;;;;;;;5.90;99.90;;;;;;5050838;28;20482;-83
2022/11/24 05:52:28;;;;;;;;;;;5.10;99.90;;;;;;5048824;28;19925;-84
2022/11/24 05:54:54;;;;;;;;;;;5.10;99.90;;;;;;5049407;28;19987;-83
2022/11/24 05:57:19;;;;;;;;;;;5.10;99.90;;;;;;5028090;28;20035;-83
2022/11/24 05:59:45;;;;;;;;;;;5.00;99.90;;;;;;5038682;28;19925;-84
2022/11/24 06:02:11;;;;;;;;;;;5.30;99.90;;;;;;5022186;28;19931;-83
2022/11/24 06:04:37;;;;;;;;;;;5.10;99.90;;;;;;5022063;28;19932;-83
2022/11/24 06:07:03;;;;;;;;;;;5.00;99.90;;;;;;5056735;28;19988;-84
2022/11/24 06:09:28;;;;;;;;;;;5.00;99.90;;;;;;5039121;28;20376;-83
2022/11/24 06:11:54;;;;;;;;;;;5.00;99.90;;;;;;5065483;28;19979;-83
2022/11/24 06:14:20;;;;;;;;;;;5.50;99.90;;;;;;5048189;28;19925;-83
2022/11/24 06:16:46;;;;;;;;;;;4.90;99.90;;;;;;5048064;28;19925;-83
2022/11/24 06:19:11;;;;;;;;;;;4.90;99.90;;;;;;5048528;28;19924;-83
2022/11/24 06:21:37;;;;;;;;;;;4.90;99.90;;;;;;5032631;28;19971;-83
2022/11/24 06:24:03;;;;;;;;;;;5.00;99.90;;;;;;5046905;28;19946;-83
2022/11/24 06:26:28;;;;;;;;;;;5.00;99.90;;;;;;5038496;28;19925;-83
2022/11/24 06:28:54;;;;;;;;;;;5.00;99.90;;;;;;5021282;28;19979;-83
2022/11/24 06:31:19;;;;;;;;;;;5.40;99.90;;;;;;5037209;28;19925;-83
2022/11/24 06:33:45;;;;;;;;;;;5.00;99.90;;;;;;5021393;28;20031;-84
2022/11/24 06:36:12;;;;;;;;;;;5.50;99.90;;;;;;5037578;28;19931;-84
2022/11/24 06:38:38;;;;;;;;;;;5.00;99.90;;;;;;5037542;28;19924;-83
2022/11/24 06:41:05;;;;;;;;;;;5.00;99.90;;;;;;5037576;28;19936;-83
2022/11/24 06:43:31;;;;;;;;;;;5.10;99.90;;;;;;5037725;28;19928;-84
2022/11/24 06:45:57;;;;;;;;;;;5.10;99.90;;;;;;5056159;28;20284;-84
2022/11/24 06:48:23;;;;;;;;;;;5.10;99.90;;;;;;5037532;28;19928;-83
2022/11/24 06:50:49;;;;;;;;;;;5.00;99.90;;;;;;5037663;28;20365;-83
2022/11/24 06:53:15;;;;;;;;;;;5.00;99.90;;;;;;5038436;28;19979;-85
2022/11/24 06:55:41;;;;;;;;;;;5.00;99.90;;;;;;5021617;28;20329;-84
2022/11/24 06:58:06;;;;;;;;;;;5.10;99.90;;;;;;5020982;28;19935;-84
2022/11/24 07:00:32;;;;;;;;;;;5.00;99.90;;;;;;5022253;28;19925;-84
2022/11/24 07:02:58;;;;;;;;;;;5.00;99.90;;;;;;5021042;28;19951;-85
2022/11/24 07:05:24;;;;;;;;;;;5.00;99.90;;;;;;5020688;28;20399;-83
2022/11/24 07:07:49;;;;;;;;;;;5.00;99.90;;;;;;5021444;28;19925;-84
2022/11/24 07:10:15;;;;;;;;;;;5.00;99.90;;;;;;5036963;28;20266;-84
2022/11/24 07:12:41;;;;;;;;;;;5.00;99.90;;;;;;5037130;28;19925;-83
2022/11/24 07:15:07;;;;;;;;;;;4.90;99.90;;;;;;5036802;28;19925;-83
2022/11/24 07:17:39;;;;;;;;;;;4.90;99.90;;;;;;5021760;28;19968;-83
2022/11/24 07:20:05;;;;;;;;;;;4.90;99.90;;;;;;5020555;28;20273;-83
2022/11/24 07:22:31;;;;;;;;;;;4.90;99.90;;;;;;5054399;28;20328;-86
2022/11/24 07:24:57;;;;;;;;;;;5.10;99.90;;;;;;5036416;28;19976;-85
2022/11/24 07:27:22;;;;;;;;;;;5.50;99.90;;;;;;5019981;28;20327;-85
2022/11/24 07:29:48;;;;;;;;;;;4.90;99.90;;;;;;5019699;28;19970;-85
2022/11/24 07:32:13;;;;;;;;;;;5.70;99.90;;;;;;5035953;28;19929;-86
2022/11/24 07:34:39;;;;;;;;;;;6.00;99.90;;;;;;5020317;28;19992;-85
2022/11/24 07:37:05;;;;;;;;;;;4.80;99.90;;;;;;5036595;28;19924;-85
2022/11/24 07:39:30;;;;;;;;;;;4.80;99.90;;;;;;5019781;28;19925;-85
2022/11/24 07:41:59;;;;;;;;;;;4.80;99.90;;;;;;5037009;28;19925;-85
2022/11/24 07:44:25;;;;;;;;;;;4.80;99.90;;;;;;5036899;28;20015;-85
2022/11/24 07:46:51;;;;;;;;;;;4.90;99.90;;;;;;5036105;28;20391;-85
2022/11/24 07:49:17;;;;;;;;;;;4.90;99.90;;;;;;5020005;28;20013;-84
2022/11/24 07:51:42;;;;;;;;;;;4.90;99.90;;;;;;5019593;28;20361;-85
2022/11/24 07:54:08;;;;;;;;;;;4.90;99.90;;;;;;5003382;28;19924;-86
2022/11/24 07:56:34;;;;;;;;;;;5.30;99.90;;;;;;5020389;28;19947;-85
2022/11/24 07:59:00;;;;;;;;;;;4.90;99.90;;;;;;5053746;28;19948;-85
2022/11/24 08:01:25;;;;;;;;;;;4.90;99.90;;;;;;5019491;28;19947;-85
2022/11/24 08:03:51;;;;;;;;;;;5.30;99.90;;;;;;5019801;28;19924;-84
2022/11/24 08:06:17;;;;;;;;;;;4.90;99.90;;;;;;5035459;28;19924;-85
2022/11/24 08:08:43;;;;;;;;;;;4.90;99.90;;;;;;5035766;28;19936;-85
2022/11/24 08:11:13;;;;;;;;;;;5.00;99.90;;;;;;5036196;28;20357;-85
2022/11/24 08:13:39;;;;;;;;;;;5.00;99.90;;;;;;5036287;28;19955;-85
2022/11/24 08:16:09;;;;;;;;;;;5.30;99.90;;;;;;5020271;28;19929;-84
2022/11/24 08:18:35;;;;;;;;;;;5.10;99.90;;;;;;5053335;28;19931;-84
2022/11/24 08:21:01;;;;;;;;;;;5.80;99.90;;;;;;5035819;28;19991;-84
2022/11/24 08:23:26;;;;;;;;;;;5.10;99.90;;;;;;5053149;28;19925;-84
2022/11/24 08:25:53;;;;;;;;;;;5.20;99.90;;;;;;5019447;28;19925;-84
2022/11/24 08:28:19;;;;;;;;;;;5.30;99.90;;;;;;5003209;28;19924;-85
2022/11/24 08:30:44;;;;;;;;;;;5.30;99.90;;;;;;5035730;28;20016;-84
2022/11/24 08:33:11;;;;;;;;;;;5.30;99.90;;;;;;5035465;28;19925;-85
2022/11/24 08:35:37;;;;;;;;;;;5.30;99.90;;;;;;5035671;28;19991;-85
2022/11/24 08:38:03;;;;;;;;;;;5.40;99.90;;;;;;5020058;28;19929;-85
2022/11/24 08:40:29;;;;;;;;;;;5.50;99.90;;;;;;5019158;28;20017;-85
2022/11/24 08:43:00;;;;;;;;;;;6.20;99.90;;;;;;5035873;28;19972;-85
2022/11/24 08:45:29;;;;;;;;;;;5.50;99.90;;;;;;5004373;28;20375;-86
2022/11/24 08:47:56;;;;;;;;;;;5.60;99.90;;;;;;5036910;28;20020;-86
2022/11/24 08:50:22;;;;;;;;;;;5.70;99.90;;;;;;5038548;28;19974;-85
2022/11/24 08:52:48;;;;;;;;;;;5.70;99.90;;;;;;5035401;28;19924;-85
2022/11/24 08:55:13;;;;;;;;;;;5.80;99.90;;;;;;5054641;28;19946;-84
2022/11/24 08:57:39;;;;;;;;;;;5.90;99.90;;;;;;5039382;28;20385;-85
2022/11/24 09:00:05;;;;;;;;;;;6.30;99.90;;;;;;5039098;28;19929;-85
2022/11/24 09:02:31;;;;;;;;;;;6.10;99.90;;;;;;5039011;28;19925;-85
2022/11/24 09:04:56;;;;;;;;;;;6.20;99.90;;;;;;5022851;28;19978;-86
2022/11/24 09:07:22;;;;;;;;;;;6.40;99.90;;;;;;5022777;28;19925;-85
2022/11/24 09:09:48;;;;;;;;;;;6.50;99.90;;;;;;5056918;28;19925;-86
2022/11/24 09:12:13;;;;;;;;;;;6.70;99.90;;;;;;5022786;28;19962;-86
2022/11/24 09:14:39;;;;;;;;;;;6.80;99.90;;;;;;5039857;28;19935;-86
2022/11/24 09:17:04;;;;;;;;;;;6.90;99.90;;;;;;5023109;28;19931;-86
2022/11/24 09:19:30;;;;;;;;;;;6.90;99.90;;;;;;5005744;28;20339;-84
2022/11/24 09:21:56;;;;;;;;;;;7.00;99.90;;;;;;5056965;28;19972;-84
2022/11/24 09:24:21;;;;;;;;;;;7.00;99.90;;;;;;5038500;28;20276;-87
2022/11/24 09:26:47;;;;;;;;;;;7.00;99.90;;;;;;5022289;28;19976;-85
2022/11/24 09:29:12;;;;;;;;;;;7.00;99.90;;;;;;5055755;28;20411;-85
2022/11/24 09:31:38;;;;;;;;;;;6.90;99.90;;;;;;5038804;28;19932;-84
2022/11/24 09:34:06;;;;;;;;;;;6.90;99.90;;;;;;5038164;28;19928;-85
2022/11/24 09:36:31;;;;;;;;;;;6.90;99.90;;;;;;5056088;28;19932;-85
2022/11/24 09:38:57;;;;;;;;;;;7.10;99.90;;;;;;5023360;28;19925;-85
2022/11/24 09:41:33;;;;;;;;;;;6.80;99.90;;;;;;5038523;28;19936;-85
2022/11/24 09:43:58;;;;;;;;;;;6.50;99.90;;;;;;5038891;28;20353;-85
2022/11/24 09:46:29;;;;;;;;;;;6.90;99.90;;;;;;5022074;28;19925;-85
2022/11/24 09:48:56;;;;;;;;;;;7.00;99.90;;;;;;5021986;28;20323;-85
2022/11/24 09:51:24;;;;;;;;;;;7.00;99.90;;;;;;5038627;28;20283;-85
2022/11/24 09:53:52;;;;;;;;;;;7.00;99.90;;;;;;5037847;28;19964;-85
2022/11/24 09:56:26;;;;;;;;;;;7.10;99.90;;;;;;5038297;28;19991;-85
2022/11/24 09:59:05;;;;;;;;;;;7.10;99.90;;;;;;5021652;28;20015;-84
2022/11/24 10:01:34;;;;;;;;;;;7.20;99.90;;;;;;5021456;28;19925;-85
2022/11/24 10:04:00;;;;;;;;;;;7.20;99.90;;;;;;5037291;28;20411;-85
2022/11/24 10:06:29;;;;;;;;;;;7.30;99.90;;;;;;5036376;28;19924;-85
2022/11/24 10:09:14;;;;;;;;;;;7.30;99.90;;;;;;5037860;28;19925;-85
2022/11/24 10:11:58;;;;;;;;;;;7.40;99.90;;;;;;5040840;28;19929;-83
2022/11/24 10:14:24;;;;;;;;;;;7.40;99.90;;;;;;5037777;28;20443;-83
2022/11/24 10:16:59;;;;;;;;;;;7.50;99.90;;;;;;5020915;28;19983;-86
2022/11/24 10:19:44;;;;;;;;;;;7.50;99.90;;;;;;5038043;28;20265;-84
2022/11/24 10:22:39;;;;;;;;;;;7.60;99.90;;;;;;5021171;28;19924;-84
2022/11/24 10:25:11;;;;;;;;;;;7.70;99.90;;;;;;4999738;28;19925;-85
2022/11/24 10:27:49;;;;;;;;;;;7.60;99.90;;;;;;5037527;28;20392;-84
2022/11/24 10:30:19;;;;;;;;;;;7.80;99.90;;;;;;5054935;28;19924;-86
2022/11/24 10:32:53;;;;;;;;;;;7.80;99.90;;;;;;5036710;28;20091;-85
2022/11/24 10:35:21;;;;;;;;;;;7.90;99.90;;;;;;5038242;28;20242;-85
2022/11/24 10:37:53;;;;;;;;;;;8.00;99.90;;;;;;5020679;28;19925;-85
2022/11/24 10:40:38;;;;;;;;;;;8.10;99.90;;;;;;5037213;28;20269;-85
2022/11/24 10:43:09;;;;;;;;;;;8.10;99.90;;;;;;5036001;28;19982;-85
2022/11/24 10:45:36;;;;;;;;;;;8.20;99.90;;;;;;5021650;28;19925;-85
2022/11/24 10:48:02;;;;;;;;;;;8.20;99.90;;;;;;5055104;28;19925;-86
2022/11/24 10:50:33;;;;;;;;;;;8.20;99.90;;;;;;5036785;28;20385;-85
2022/11/24 10:52:58;;;;;;;;;;;8.20;99.90;;;;;;5020491;28;20380;-85
2022/11/24 10:55:24;;;;;;;;;;;8.10;99.90;;;;;;5037780;28;19982;-85
2022/11/24 10:57:50;;;;;;;;;;;8.10;99.90;;;;;;5036898;28;19925;-86
2022/11/24 11:00:18;;;;;;;;;;;8.10;99.90;;;;;;5003914;28;19929;-86
2022/11/24 11:02:45;;;;;;;;;;;8.10;99.90;;;;;;5020076;28;19925;-84
2022/11/24 11:05:31;;;;;;;;;;;8.20;99.90;;;;;;5036862;28;19925;-87
2022/11/24 11:08:15;;;;;;;;;;;8.20;99.90;;;;;;5018995;28;19925;-85
2022/11/24 11:10:42;;;;;;;;;;;8.10;99.90;;;;;;5037338;28;19925;-85
2022/11/24 11:13:20;;;;;;;;;;;8.10;99.90;;;;;;5054100;28;20055;-84
2022/11/24 11:15:46;;;;;;;;;;;8.20;99.90;;;;;;5020439;28;19925;-85
2022/11/24 11:18:14;;;;;;;;;;;8.30;99.90;;;;;;5035808;28;19931;-85
2022/11/24 11:20:47;;;;;;;;;;;8.40;99.90;;;;;;5036762;28;19929;-85
2022/11/24 11:23:21;;;;;;;;;;;8.40;99.90;;;;;;5054089;28;19925;-85
2022/11/24 11:25:47;;;;;;;;;;;8.50;99.90;;;;;;5054633;28;20492;-85
2022/11/24 11:28:15;;;;;;;;;;;8.50;99.90;;;;;;5036491;28;19972;-83
2022/11/24 11:30:53;;;;;;;;;;;8.60;99.90;;;;;;5021577;28;20324;-84
2022/11/24 11:33:21;;;;;;;;;;;8.60;99.90;;;;;;5054101;28;20011;-84
2022/11/24 11:35:47;;;;;;;;;;;8.60;99.90;;;;;;5037293;28;19979;-84
2022/11/24 11:38:12;;;;;;;;;;;8.60;99.90;;;;;;5053778;28;20332;-84
2022/11/24 11:40:41;;;;;;;;;;;8.70;99.90;;;;;;5053949;28;19946;-84
2022/11/24 11:43:13;;;;;;;;;;;8.70;99.90;;;;;;5036461;28;19929;-84
2022/11/24 11:45:42;;;;;;;;;;;8.70;99.90;;;;;;5020372;28;19925;-84
2022/11/24 11:48:07;;;;;;;;;;;8.70;99.90;;;;;;5053598;28;19925;-84
2022/11/24 11:50:42;;;;;;;;;;;8.80;99.90;;;;;;5019457;28;19935;-84
2022/11/24 11:53:17;;;;;;;;;;;8.70;99.90;;;;;;5019536;28;19924;-84
2022/11/24 11:55:45;;;;;;;;;;;8.80;99.90;;;;;;5036161;28;20432;-84
2022/11/24 11:58:11;;;;;;;;;;;8.80;99.90;;;;;;5020020;28;20447;-84
2022/11/24 12:00:38;;;;;;;;;;;8.90;99.90;;;;;;5036149;28;19982;-84
2022/11/24 12:03:24;;;;;;;;;;;8.90;99.90;;;;;;5036788;28;20382;-84
2022/11/24 12:05:49;;;;;;;;;;;9.00;99.90;;;;;;5036100;28;20265;-84
2022/11/24 12:08:18;;;;;;;;;;;9.00;99.90;;;;;;5036266;28;19925;-84
2022/11/24 12:10:43;;;;;;;;;;;9.10;99.90;;;;;;5035704;28;20325;-84
2022/11/24 12:13:18;;;;;;;;;;;9.10;99.90;;;;;;5036446;28;19935;-83
2022/11/24 12:15:46;;;;;;;;;;;9.10;99.90;;;;;;5036352;28;20349;-84
2022/11/24 12:18:16;;;;;;;;;;;8.90;99.90;;;;;;5054402;28;19929;-84
2022/11/24 12:20:45;;;;;;;;;;;9.20;99.90;;;;;;5019488;28;20007;-84
2022/11/24 12:23:20;;;;;;;;;;;9.30;99.90;;;;;;5036449;28;19947;-85
2022/11/24 12:25:51;;;;;;;;;;;9.30;99.90;;;;;;5035688;28;19932;-85
2022/11/24 12:28:23;;;;;;;;;;;9.30;99.90;;;;;;5036121;28;19975;-84
2022/11/24 12:30:48;;;;;;;;;;;9.30;99.90;;;;;;5022317;28;20333;-85
2022/11/24 12:33:35;;;;;;;;;;;9.40;99.90;;;;;;5039437;28;20004;-84
2022/11/24 12:36:21;;;;;;;;;;;9.40;99.90;;;;;;5022985;28;20020;-85
2022/11/24 12:38:57;;;;;;;;;;;9.40;99.90;;;;;;5040217;28;19982;-85
2022/11/24 12:41:41;;;;;;;;;;;9.40;99.90;;;;;;5039368;28;19924;-85
2022/11/24 12:44:33;;;;;;;;;;;9.50;99.90;;;;;;5022788;28;20403;-85
2022/11/24 12:47:09;;;;;;;;;;;9.50;99.90;;;;;;5001406;28;19924;-85
2022/11/24 12:50:10;;;;;;;;;;;9.50;99.90;;;;;;5040033;28;19925;-85
2022/11/24 12:52:38;;;;;;;;;;;9.50;99.90;;;;;;4955974;29;19974;-85
2022/11/24 12:55:07;;;;;;;;;;;9.50;99.90;;;;;;5019904;28;20380;-85
2022/11/24 12:57:35;;;;;;;;;;;9.50;99.90;;;;;;5038730;28;20059;-85
2022/11/24 13:00:05;;;;;;;;;;;9.60;99.90;;;;;;5038711;28;19925;-84
2022/11/24 13:02:48;;;;;;;;;;;9.60;99.90;;;;;;5038871;28;20432;-85
2022/11/24 13:05:27;;;;;;;;;;;9.60;99.90;;;;;;5023183;28;19924;-85
2022/11/24 13:07:58;;;;;;;;;;;9.70;99.90;;;;;;5038556;28;19993;-85
2022/11/24 13:10:26;;;;;;;;;;;9.70;99.90;;;;;;5022226;28;19933;-84
2022/11/24 13:12:55;;;;;;;;;;;9.70;99.90;;;;;;5038387;28;19924;-85
2022/11/24 13:15:20;;;;;;;;;;;9.80;99.90;;;;;;5021853;28;19975;-85
2022/11/24 13:17:46;;;;;;;;;;;9.80;99.90;;;;;;5006204;28;20033;-85
2022/11/24 13:20:20;;;;;;;;;;;9.80;99.90;;;;;;5022069;28;19928;-85
2022/11/24 13:22:54;;;;;;;;;;;9.80;99.90;;;;;;5038861;28;19983;-85
2022/11/24 13:25:22;;;;;;;;;;;9.70;99.90;;;;;;5038472;28;19948;-85
2022/11/24 13:27:51;;;;;;;;;;;9.70;99.90;;;;;;5039303;28;19925;-85
2022/11/24 13:30:32;;;;;;;;;;;9.70;99.90;;;;;;5021971;28;19925;-84
2022/11/24 13:33:01;;;;;;;;;;;9.70;99.90;;;;;;5037911;28;19924;-85
2022/11/24 13:35:26;;;;;;;;;;;9.70;99.90;;;;;;5021869;28;20012;-85
2022/11/24 13:37:52;;;;;;;;;;;9.70;99.90;;;;;;5021712;28;20317;-85
2022/11/24 13:40:21;;;;;;;;;;;9.70;99.90;;;;;;5022446;28;20023;-85
2022/11/24 13:42:56;;;;;;;;;;;9.70;99.90;;;;;;5038934;28;19932;-85
2022/11/24 13:45:48;;;;;;;;;;;9.70;99.90;;;;;;5038274;28;19925;-86
2022/11/24 13:48:20;;;;;;;;;;;9.60;99.90;;;;;;5021895;28;20312;-85
2022/11/24 13:50:48;;;;;;;;;;;9.60;99.90;;;;;;5021585;28;19932;-85
2022/11/24 13:53:19;;;;;;;;;;;9.50;99.90;;;;;;5021652;28;19931;-85
2022/11/24 13:55:57;;;;;;;;;;;9.50;99.90;;;;;;5021783;28;19925;-85
2022/11/24 13:58:26;;;;;;;;;;;9.50;99.90;;;;;;5037783;28;19925;-85
2022/11/24 14:01:15;;;;;;;;;;;9.50;99.90;;;;;;5037613;28;19925;-85
2022/11/24 14:03:56;;;;;;;;;;;9.50;99.90;;;;;;5008229;28;19924;-85
2022/11/24 14:06:30;;;;;;;;;;;9.50;99.90;;;;;;5021150;28;20265;-85
2022/11/24 14:08:57;;;;;;;;;;;9.40;99.90;;;;;;5038463;28;19925;-85
2022/11/24 14:11:25;;;;;;;;;;;9.40;99.90;;;;;;5037667;28;19932;-85
2022/11/24 14:13:51;;;;;;;;;;;9.40;99.90;;;;;;5021397;28;19925;-85
2022/11/24 14:16:18;;;;;;;;;;;9.30;99.90;;;;;;5055312;28;19929;-84
2022/11/24 14:18:45;;;;;;;;;;;9.30;99.90;;;;;;5037249;28;19925;-85
2022/11/24 14:21:15;;;;;;;;;;;9.30;99.90;;;;;;5038374;28;19929;-83
2022/11/24 14:23:43;;;;;;;;;;;9.20;99.90;;;;;;5037487;28;20262;-85
2022/11/24 14:26:16;;;;;;;;;;;9.20;99.90;;;;;;5021191;28;19971;-85
2022/11/24 14:28:43;;;;;;;;;;;9.40;99.90;;;;;;5037598;28;19925;-85
2022/11/24 14:31:18;;;;;;;;;;;9.10;99.90;;;;;;5054804;28;19925;-85
2022/11/24 14:33:44;;;;;;;;;;;9.10;99.90;;;;;;5037660;28;19932;-85
2022/11/24 14:36:13;;;;;;;;;;;9.00;99.90;;;;;;5004411;28;19951;-85
2022/11/24 14:38:39;;;;;;;;;;;8.90;99.90;;;;;;5037536;28;19929;-85
2022/11/24 14:41:21;;;;;;;;;;;8.90;99.90;;;;;;5055267;28;20047;-85